x

North Nomad (46184) Wave Buoy

2:00am - Fri 12th Feb 2016 All times are AKST. -9 hours from GMT.

  • Sig Wave height 23.3ft
  • Peak Period 12s
  • Wind
    36mph, 45mph gusts
  • Sea Temp 45°f
  • Air Temp 44°f
  • Sea Pressure 993mb
  • North Nomad
  • North Nomad

More Historic Weather Station data

Upgrade to MSW Pro to gain access to the past 30 days of data for over 8000 Wavebouys and Weather Stations around the globe.

Join Pro

Comparision Forecast

View Surf forecast
   
Fri 02/12 2:00am 23.5ft 12s 36 45 mph 993mb 45f 44f
1:00am 23.5ft 11s 38 47 mph 991.5mb 45f 43f
12:00am 23.5ft 11s 40 54 mph 989.6mb 45f 44f
Thu 02/11 11:00pm 24ft 11s 40 51 mph 988.5mb 45f 44f
10:00pm 21ft 11s 36 49 mph 988.4mb 45f 44f
9:00pm 21ft 11s 40 49 mph 988mb 45f 45f
8:00pm 19.5ft 11s 38 45 mph 988.7mb 45f 46f
7:00pm 19.5ft 11s 36 45 mph 989.4mb 45f 45f
6:00pm 19.5ft 10s 36 47 mph 990mb 45f 47f
5:00pm 19ft 11s 29 36 mph 990.4mb 45f 47f
4:00pm 19.5ft 10s 31 40 mph 990.8mb 45f 46f
3:00pm 19ft 10s 34 45 mph 991.6mb 45f 46f
2:00pm  -   -  38
mph
992.5mb - 46f
1:00pm 18ft 10s 36 47 mph 993.9mb 45f 45f
12:00pm 16ft 8s 36 45 mph 994.9mb 45f 46f
11:00am 15.5ft 11s 36 45 mph 996.5mb 45f 47f
10:00am 15.5ft 13s 31 38 mph 998.3mb 45f 47f
9:00am 16.5ft 13s 25 34 mph 1000mb 45f 46f
8:00am 15.5ft 13s 20 29 mph 1001.7mb 45f 45f
7:00am 15.5ft 12s 25 31 mph 1002.9mb 45f 46f
6:00am 16ft 14s 20 27 mph 1003.9mb 45f 46f
5:00am 15.5ft 12s 20 25 mph 1004.9mb 45f 46f
4:00am 16.5ft 13s 20 25 mph 1005.1mb 45f 46f
3:00am 17.5ft 12s 20 25 mph 1005.4mb 45f 45f
2:00am 16.5ft 12s 22 27 mph 1005mb 45f 45f
1:00am 17.5ft 12s 22 27 mph 1004.2mb 45f 45f
12:00am 18.5ft 12s 27 34 mph 1003.5mb 45f 46f
Wed 02/10 11:00pm 19.5ft 12s 27 34 mph 1002.4mb 45f 45f
10:00pm 18.5ft 12s 20 27 mph 1001.1mb 45f 45f
9:00pm 19.5ft 11s 22 29 mph 999.2mb 45f 45f
8:00pm 18.5ft 12s 25 31 mph 997.6mb 45f 45f
7:00pm 18ft 10s 22 29 mph 996.6mb 45f 46f
6:00pm 16.5ft 8s 31 38 mph 995.2mb 45f 46f
5:00pm 16.5ft 8s 31 38 mph 994mb 45f 46f
4:00pm 15.5ft 8s 34 40 mph 992.5mb 45f 46f
3:00pm 15ft 8s 34 45 mph 991.3mb 45f 46f
2:00pm 14.5ft 9s 27 34 mph 990.4mb 45f 47f
1:00pm 13.5ft 8s 27 34 mph 990.5mb 45f 46f
12:00pm 14ft 8s 25 31 mph 990.9mb 45f 47f
11:00am 14.5ft 14s 29 36 mph 990.5mb 45f 47f
10:00am 14ft 12s 27 31 mph 991.5mb 45f 47f
9:00am 13.5ft 12s 25 31 mph 992.8mb 45f 46f
8:00am 13ft 12s 27 34 mph 993.3mb 45f 47f
7:00am 14ft 14s 27 34 mph 993.9mb 45f 46f
6:00am 13ft 14s 25 29 mph 994.8mb 45f 46f
5:00am 11ft 14s 20 27 mph 996.3mb 45f 46f
4:00am 9ft 11s 20 25 mph 996.9mb 45f 46f
3:00am 9ft 11s 16 18 mph 997.8mb 45f 46f
2:00am 8.5ft 8s 18 20 mph 998.8mb 45f 46f
1:00am 8.5ft 7s 18 22 mph 999mb 45f 47f
12:00am 9ft 8s 18 22 mph 998.8mb 45f 47f
Tue 02/09 11:00pm 9ft 11s 13 18 mph 999mb 45f 46f
10:00pm 8.5ft 8s 13 18 mph 998.7mb 45f 46f
9:00pm 9ft 8s 18 22 mph 997.9mb 45f 47f
8:00pm 9ft 8s 16 18 mph 997.3mb 45f 46f
7:00pm 9ft 12s 18 25 mph 996.9mb 45f 47f
6:00pm 10ft 8s 18 22 mph 996.5mb 45f 46f
5:00pm 10ft 7s 20 22 mph 995.9mb 45f 46f
4:00pm 11ft 8s 20 25 mph 995.8mb 45f 46f
3:00pm 11ft 8s 25 29 mph 996.2mb 45f 46f
2:00pm  -   -  27
mph
997.3mb - 46f
1:00pm 12ft 7s 31 40 mph 998.5mb 45f 45f
12:00pm 12.5ft 7s 34 43 mph 999.6mb 45f 46f
11:00am 12ft 12s 31 40 mph 1001.6mb 45f 45f
10:00am 11.5ft 11s 29 36 mph 1004.5mb 45f 46f
9:00am 10.5ft 11s 27 31 mph 1006.9mb 45f 46f
7:00am 11ft 12s 29 36 mph 1010.1mb 45f 45f
6:00am 10ft 12s 27 34 mph 1011.6mb 45f 45f
5:00am 10ft 11s 25 31 mph 1013.3mb 45f 44f
4:00am 11ft 10s 22 29 mph 1014.2mb 45f 44f
3:00am 11.5ft 11s 18 25 mph 1015.6mb 45f 44f
2:00am 12.5ft 10s 13 18 mph 1016.8mb 45f 44f
1:00am 13ft 10s 9 13 mph 1017.5mb 45f 44f
12:00am 12ft 10s 7 9 mph 1018.2mb 45f 44f
Mon 02/08 11:00pm 13.5ft 11s 2 7 mph 1018.7mb 45f 44f
10:00pm 13ft 10s 4 9 mph 1018.5mb 45f 44f
9:00pm 14ft 11s 9 11 mph 1018.4mb 45f 44f
8:00pm 13.5ft 10s 9 11 mph 1017.8mb 45f 43f
7:00pm 13ft 12s 13 18 mph 1016.9mb 45f 44f
6:00pm 13ft 11s 16 18 mph 1016.1mb 45f 44f
5:00pm 15ft 12s 18 22 mph 1014.7mb 45f 44f
4:00pm 15ft 13s 20 25 mph 1014mb 45f 43f
3:00pm 15.5ft 13s 22 29 mph 1012.4mb 45f 44f
2:00pm 16ft 14s 27 36 mph 1010.2mb 45f 44f
1:00pm 16ft 13s 31 38 mph 1007.9mb 45f 44f